Time;durP1;ratioP1;P1;durP2;ratioP2;P2;SDS_P1;SDS_P2;PMS_P1;PMS_P2;Temp;Humidity;BMP_temperature;BMP_pressure;BME280_temperature;BME280_humidity;BME280_pressure;Samples;Min_cycle;Max_cycle;Signal;HPM_P1;HPM_P2
2021/01/18 00:00:37;;;;;;;;;;;0.40;99.90;;;;;;5070119;28;19935;-75
2021/01/18 00:03:41;;;;;;;;;;;0.30;99.90;;;;;;5070920;28;20410;-75
2021/01/18 00:06:45;;;;;;;;;;;0.20;99.90;;;;;;5070078;28;19919;-75
2021/01/18 00:09:49;;;;;;;;;;;0.20;99.90;;;;;;5056998;28;19923;-76
2021/01/18 00:12:54;;;;;;;;;;;0.20;99.90;;;;;;5057602;28;19927;-76
2021/01/18 00:15:58;;;;;;;;;;;0.20;99.90;;;;;;5070089;28;19939;-76
2021/01/18 00:19:02;;;;;;;;;;;0.10;99.90;;;;;;5071043;28;20432;-75
2021/01/18 00:22:07;;;;;;;;;;;0.10;99.90;;;;;;5070011;28;19951;-76
2021/01/18 00:25:16;;;;;;;;;;;0.00;99.90;;;;;;5057892;28;19923;-76
2021/01/18 00:28:20;;;;;;;;;;;0.00;99.90;;;;;;5069627;28;19942;-76
2021/01/18 00:31:24;;;;;;;;;;;-0.10;99.90;;;;;;5069751;28;19927;-75
2021/01/18 00:34:29;;;;;;;;;;;-0.10;99.90;;;;;;5070493;28;19923;-75
2021/01/18 00:37:39;;;;;;;;;;;-0.10;99.90;;;;;;5070475;28;19935;-76
2021/01/18 00:40:43;;;;;;;;;;;-0.10;99.90;;;;;;5070338;28;20359;-75
2021/01/18 00:43:47;;;;;;;;;;;-0.10;99.90;;;;;;5068820;28;19919;-76
2021/01/18 00:46:51;;;;;;;;;;;-0.10;99.90;;;;;;5058248;28;19923;-75
2021/01/18 00:49:55;;;;;;;;;;;0.00;99.90;;;;;;5057205;28;19917;-75
2021/01/18 00:52:59;;;;;;;;;;;0.00;99.90;;;;;;5070279;28;19924;-76
2021/01/18 00:56:07;;;;;;;;;;;-0.10;99.90;;;;;;5069468;28;19919;-75
2021/01/18 00:59:21;;;;;;;;;;;-0.20;99.90;;;;;;5068407;28;19924;-76
2021/01/18 01:02:30;;;;;;;;;;;-0.20;99.90;;;;;;5070766;28;19920;-75
2021/01/18 01:05:34;;;;;;;;;;;-0.20;99.90;;;;;;5060478;28;19931;-75
2021/01/18 01:08:38;;;;;;;;;;;-0.10;99.90;;;;;;5074208;28;19923;-75
2021/01/18 01:11:44;;;;;;;;;;;-0.10;99.90;;;;;;5073810;28;19923;-75
2021/01/18 01:14:48;;;;;;;;;;;-0.20;99.90;;;;;;5061212;28;19924;-75
2021/01/18 01:17:53;;;;;;;;;;;-0.10;99.90;;;;;;5060553;28;20284;-75
2021/01/18 01:20:58;;;;;;;;;;;-0.10;99.90;;;;;;5073122;28;19924;-75
2021/01/18 01:24:02;;;;;;;;;;;0.00;99.90;;;;;;5073689;28;19912;-75
2021/01/18 01:27:06;;;;;;;;;;;0.10;99.90;;;;;;5062107;28;19928;-75
2021/01/18 01:30:24;;;;;;;;;;;0.10;99.90;;;;;;5062948;28;20267;-75
2021/01/18 01:33:28;;;;;;;;;;;0.10;99.90;;;;;;5074166;28;19923;-75
2021/01/18 01:36:32;;;;;;;;;;;0.10;99.90;;;;;;5073754;28;19935;-75
2021/01/18 01:39:37;;;;;;;;;;;0.10;99.90;;;;;;5073481;28;19936;-74
2021/01/18 01:42:41;;;;;;;;;;;0.00;99.90;;;;;;5073113;28;19919;-75
2021/01/18 01:45:46;;;;;;;;;;;-0.10;99.90;;;;;;5073730;28;19920;-74
2021/01/18 01:48:50;;;;;;;;;;;-0.20;99.90;;;;;;5073893;28;19923;-75
2021/01/18 01:51:54;;;;;;;;;;;-0.30;99.90;;;;;;5059113;28;19923;-75
2021/01/18 01:55:00;;;;;;;;;;;-0.40;99.90;;;;;;5073187;28;19923;-76
2021/01/18 01:58:05;;;;;;;;;;;-0.50;99.90;;;;;;5070034;28;19979;-73
2021/01/18 02:01:09;;;;;;;;;;;-0.50;99.90;;;;;;5066472;28;19923;-76
2021/01/18 02:04:13;;;;;;;;;;;-0.50;99.90;;;;;;5073368;28;19924;-75
2021/01/18 02:07:21;;;;;;;;;;;-0.40;99.90;;;;;;5060198;28;19919;-75
2021/01/18 02:10:25;;;;;;;;;;;-0.40;99.90;;;;;;5071822;28;19923;-75
2021/01/18 02:13:44;;;;;;;;;;;-0.30;99.90;;;;;;5071545;28;20283;-75
2021/01/18 02:16:49;;;;;;;;;;;-0.30;99.90;;;;;;5071118;28;20581;-75
2021/01/18 02:20:16;;;;;;;;;;;-0.20;99.90;;;;;;5072120;28;19923;-76
2021/01/18 02:23:38;;;;;;;;;;;-0.20;99.90;;;;;;5061243;28;19919;-75
2021/01/18 02:27:18;;;;;;;;;;;-0.20;99.90;;;;;;5072196;28;19920;-76
2021/01/18 02:30:31;;;;;;;;;;;-0.20;99.90;;;;;;5012107;28;19941;-75
2021/01/18 02:33:55;;;;;;;;;;;-0.10;99.90;;;;;;5072331;28;20378;-75
2021/01/18 02:37:12;;;;;;;;;;;-0.10;99.90;;;;;;5072178;28;19983;-76
2021/01/18 02:40:17;;;;;;;;;;;0.00;99.90;;;;;;5059585;28;20539;-75
2021/01/18 02:43:22;;;;;;;;;;;0.00;99.90;;;;;;5070886;28;19991;-75
2021/01/18 02:46:26;;;;;;;;;;;0.00;99.90;;;;;;5059376;28;19935;-74
2021/01/18 02:49:30;;;;;;;;;;;-0.10;99.90;;;;;;5071598;28;19943;-76
2021/01/18 02:52:41;;;;;;;;;;;-0.10;99.90;;;;;;5059140;28;19964;-74
2021/01/18 02:55:45;;;;;;;;;;;-0.20;99.90;;;;;;5072020;28;19923;-75
2021/01/18 02:58:49;;;;;;;;;;;-0.30;99.90;;;;;;5070773;28;19927;-75
2021/01/18 03:02:13;;;;;;;;;;;-0.40;99.90;;;;;;5071438;28;19924;-74
2021/01/18 03:05:22;;;;;;;;;;;-0.40;99.90;;;;;;5072180;28;20423;-76
2021/01/18 03:08:43;;;;;;;;;;;-0.40;99.90;;;;;;5071694;28;19923;-75
2021/01/18 03:11:49;;;;;;;;;;;-0.40;99.90;;;;;;5071142;28;19919;-76
2021/01/18 03:14:54;;;;;;;;;;;-0.50;99.90;;;;;;5070997;28;20292;-76
2021/01/18 03:18:01;;;;;;;;;;;-0.70;99.90;;;;;;5058224;28;20395;-76
2021/01/18 03:21:06;;;;;;;;;;;-1.20;99.90;;;;;;5070521;28;20374;-75
2021/01/18 03:24:09;;;;;;;;;;;-1.40;99.90;;;;;;5071370;28;20268;-75
2021/01/18 03:27:13;;;;;;;;;;;-1.40;99.90;;;;;;5071035;28;19935;-75
2021/01/18 03:30:19;;;;;;;;;;;-1.40;99.90;;;;;;5069726;28;19924;-75
2021/01/18 03:33:24;;;;;;;;;;;-1.40;99.90;;;;;;5071191;28;19928;-75
2021/01/18 03:36:30;;;;;;;;;;;-1.50;99.90;;;;;;5070567;28;19919;-75
2021/01/18 03:39:34;;;;;;;;;;;-1.50;99.90;;;;;;5070880;28;19923;-75
2021/01/18 03:42:38;;;;;;;;;;;-1.60;99.90;;;;;;5070567;28;20311;-75
2021/01/18 03:45:43;;;;;;;;;;;-1.70;99.90;;;;;;5071296;28;19934;-75
2021/01/18 03:48:47;;;;;;;;;;;-1.70;99.90;;;;;;5070945;28;20401;-75
2021/01/18 03:51:51;;;;;;;;;;;-1.70;99.90;;;;;;5068803;28;19932;-75
2021/01/18 03:54:54;;;;;;;;;;;-1.70;99.90;;;;;;5071185;28;19927;-75
2021/01/18 03:57:58;;;;;;;;;;;-1.50;99.90;;;;;;5068402;28;19924;-75
2021/01/18 04:01:02;;;;;;;;;;;-1.30;99.90;;;;;;5069251;28;19931;-75
2021/01/18 04:04:06;;;;;;;;;;;-1.20;99.90;;;;;;5069226;28;19920;-75
2021/01/18 04:07:10;;;;;;;;;;;-1.20;99.90;;;;;;5070907;28;19943;-75
2021/01/18 04:10:16;;;;;;;;;;;-1.10;99.90;;;;;;5070280;28;19936;-75
2021/01/18 04:13:19;;;;;;;;;;;-1.00;99.90;;;;;;5070180;28;19919;-75
2021/01/18 04:16:24;;;;;;;;;;;-0.90;99.90;;;;;;5071308;28;19920;-75
2021/01/18 04:19:28;;;;;;;;;;;-0.70;99.90;;;;;;5071162;28;19919;-75
2021/01/18 04:22:32;;;;;;;;;;;-0.60;99.90;;;;;;5058925;28;19940;-75
2021/01/18 04:25:36;;;;;;;;;;;-0.60;99.90;;;;;;5070915;28;19927;-74
2021/01/18 04:28:40;;;;;;;;;;;-0.50;99.90;;;;;;5068953;28;19935;-75
2021/01/18 04:31:44;;;;;;;;;;;-0.40;99.90;;;;;;5070225;28;19947;-75
2021/01/18 04:34:48;;;;;;;;;;;-0.40;99.90;;;;;;5070563;28;19919;-75
2021/01/18 04:37:52;;;;;;;;;;;-0.50;99.90;;;;;;5069900;28;19920;-75
2021/01/18 04:40:56;;;;;;;;;;;-0.60;99.90;;;;;;5071841;28;20562;-75
2021/01/18 04:44:00;;;;;;;;;;;-0.70;99.90;;;;;;5073238;28;20360;-75
2021/01/18 04:47:05;;;;;;;;;;;-0.70;99.90;;;;;;5073945;28;20414;-75
2021/01/18 04:50:11;;;;;;;;;;;-0.70;99.90;;;;;;5063230;28;19991;-75
2021/01/18 04:53:16;;;;;;;;;;;-0.90;99.90;;;;;;5073626;28;19943;-75
2021/01/18 04:56:36;;;;;;;;;;;-1.10;99.90;;;;;;5074053;28;19920;-75
2021/01/18 04:59:45;;;;;;;;;;;-1.30;99.90;;;;;;5073059;28;19916;-75
2021/01/18 05:02:52;;;;;;;;;;;-1.40;99.90;;;;;;5061820;28;19919;-75
2021/01/18 05:06:16;;;;;;;;;;;-1.50;99.90;;;;;;5074140;28;19919;-74
2021/01/18 05:09:23;;;;;;;;;;;-1.50;99.90;;;;;;5052964;28;19943;-75
2021/01/18 05:12:27;;;;;;;;;;;-1.50;99.90;;;;;;5072667;28;19966;-75
2021/01/18 05:15:33;;;;;;;;;;;-1.50;99.90;;;;;;5073219;28;19919;-75
2021/01/18 05:18:38;;;;;;;;;;;-1.50;99.90;;;;;;5069304;28;19920;-74
2021/01/18 05:21:42;;;;;;;;;;;-1.40;99.90;;;;;;5068501;28;19923;-75
2021/01/18 05:24:47;;;;;;;;;;;-1.30;99.90;;;;;;5072486;28;19924;-75
2021/01/18 05:27:57;;;;;;;;;;;-1.30;99.90;;;;;;5071296;28;20271;-75
2021/01/18 05:31:01;;;;;;;;;;;-1.10;99.90;;;;;;5054769;28;20367;-75
2021/01/18 05:34:12;;;;;;;;;;;-0.90;99.90;;;;;;5067034;28;19924;-75
2021/01/18 05:37:16;;;;;;;;;;;-1.10;99.90;;;;;;5060559;28;19924;-74
2021/01/18 05:40:22;;;;;;;;;;;-1.20;99.90;;;;;;5055294;28;19920;-75
2021/01/18 05:43:33;;;;;;;;;;;-1.30;99.90;;;;;;5068583;28;20343;-75
2021/01/18 05:46:38;;;;;;;;;;;-1.20;99.90;;;;;;5055159;28;20283;-75
2021/01/18 05:49:44;;;;;;;;;;;-1.10;99.90;;;;;;5069014;28;19924;-75
2021/01/18 05:52:48;;;;;;;;;;;-1.00;99.90;;;;;;5060048;28;19924;-75
2021/01/18 05:55:52;;;;;;;;;;;-1.00;99.90;;;;;;5070007;28;19931;-75
2021/01/18 05:58:56;;;;;;;;;;;-1.00;99.90;;;;;;5065847;28;21407;-75
2021/01/18 06:02:01;;;;;;;;;;;-1.10;99.90;;;;;;5067008;28;20642;-74
2021/01/18 06:05:08;;;;;;;;;;;-1.20;99.90;;;;;;5055271;28;19936;-74
2021/01/18 06:08:16;;;;;;;;;;;-1.30;99.90;;;;;;5070478;28;20370;-75
2021/01/18 06:11:24;;;;;;;;;;;-1.50;99.90;;;;;;5072303;28;19916;-73
2021/01/18 06:14:28;;;;;;;;;;;-1.50;99.90;;;;;;5065405;28;19962;-74
2021/01/18 06:17:32;;;;;;;;;;;-1.50;99.90;;;;;;5063506;28;19913;-75
2021/01/18 06:20:37;;;;;;;;;;;-1.40;99.90;;;;;;5070677;28;19917;-75
2021/01/18 06:23:41;;;;;;;;;;;-1.10;99.90;;;;;;5067219;28;19923;-75
2021/01/18 06:26:47;;;;;;;;;;;-1.00;99.90;;;;;;5061711;28;19935;-75
2021/01/18 06:29:51;;;;;;;;;;;-1.10;99.90;;;;;;5065885;28;19923;-74
2021/01/18 06:32:57;;;;;;;;;;;-1.10;99.90;;;;;;5065490;28;19920;-75
2021/01/18 06:36:11;;;;;;;;;;;-1.30;99.90;;;;;;5065343;28;20371;-75
2021/01/18 06:39:16;;;;;;;;;;;-1.40;99.90;;;;;;5068515;28;19927;-75
2021/01/18 06:42:20;;;;;;;;;;;-1.50;99.90;;;;;;5061840;28;19920;-75
2021/01/18 06:45:40;;;;;;;;;;;-1.70;99.90;;;;;;5066386;28;19919;-74
2021/01/18 06:48:46;;;;;;;;;;;-2.00;99.90;;;;;;5069566;28;19923;-75
2021/01/18 06:51:52;;;;;;;;;;;-2.10;99.90;;;;;;5058618;28;20290;-75
2021/01/18 06:55:04;;;;;;;;;;;-2.20;99.90;;;;;;5071140;28;19924;-75
2021/01/18 06:58:28;;;;;;;;;;;-2.20;99.90;;;;;;5069722;28;20343;-75
2021/01/18 07:01:39;;;;;;;;;;;-2.20;99.90;;;;;;5071321;28;19920;-75
2021/01/18 07:04:46;;;;;;;;;;;-1.90;99.90;;;;;;5070841;28;19919;-75
2021/01/18 07:07:55;;;;;;;;;;;-1.80;99.90;;;;;;5062873;28;19920;-75
2021/01/18 07:11:06;;;;;;;;;;;-1.70;99.90;;;;;;5061509;28;19939;-75
2021/01/18 07:14:12;;;;;;;;;;;-1.50;99.90;;;;;;5065524;28;19920;-75
2021/01/18 07:17:17;;;;;;;;;;;-0.20;99.90;;;;;;5069498;28;19927;-75
2021/01/18 07:20:22;;;;;;;;;;;2.60;99.90;;;;;;5068216;28;19920;-75
2021/01/18 07:23:29;;;;;;;;;;;5.30;99.90;;;;;;5068765;28;19919;-75
2021/01/18 07:26:58;;;;;;;;;;;7.80;99.90;;;;;;5070694;28;19919;-74
2021/01/18 07:30:03;;;;;;;;;;;8.20;99.90;;;;;;5051730;28;19953;-74
2021/01/18 07:33:08;;;;;;;;;;;7.60;99.90;;;;;;5066367;28;19927;-74
2021/01/18 07:36:22;;;;;;;;;;;9.30;99.90;;;;;;5069991;28;19924;-74
2021/01/18 07:39:33;;;;;;;;;;;8.80;99.90;;;;;;5069300;28;19920;-74
2021/01/18 07:42:38;;;;;;;;;;;8.50;99.90;;;;;;5060056;28;19924;-73
2021/01/18 07:45:43;;;;;;;;;;;8.80;99.90;;;;;;5067949;28;19923;-74
2021/01/18 07:48:47;;;;;;;;;;;10.20;99.90;;;;;;5059852;28;19924;-74
2021/01/18 07:52:10;;;;;;;;;;;11.70;99.90;;;;;;5058321;28;20267;-73
2021/01/18 07:55:20;;;;;;;;;;;13.10;97.80;;;;;;5070213;28;20386;-73
2021/01/18 07:58:24;;;;;;;;;;;15.60;92.90;;;;;;5061147;28;19923;-73
2021/01/18 08:01:37;;;;;;;;;;;17.40;85.50;;;;;;5055852;28;19920;-74
2021/01/18 08:04:42;;;;;;;;;;;17.70;73.50;;;;;;5057644;28;19935;-74
2021/01/18 08:08:02;;;;;;;;;;;12.80;81.10;;;;;;5069465;28;20279;-73
2021/01/18 08:11:17;;;;;;;;;;;9.80;89.60;;;;;;5058299;28;19924;-74
2021/01/18 08:14:21;;;;;;;;;;;8.10;95.20;;;;;;5065255;28;19924;-74
2021/01/18 08:17:25;;;;;;;;;;;8.70;97.20;;;;;;5072903;28;19924;-74
2021/01/18 08:20:29;;;;;;;;;;;12.20;95.10;;;;;;5055084;28;19924;-75
2021/01/18 08:23:41;;;;;;;;;;;14.20;87.60;;;;;;5072315;28;19935;-75
2021/01/18 08:26:49;;;;;;;;;;;15.20;82.40;;;;;;5071652;28;19924;-75
2021/01/18 08:29:53;;;;;;;;;;;16.50;80.10;;;;;;5066862;28;19928;-75
2021/01/18 08:32:57;;;;;;;;;;;17.10;79.20;;;;;;5070478;28;19919;-75
2021/01/18 08:36:02;;;;;;;;;;;18.20;71.80;;;;;;5064414;28;19919;-75
2021/01/18 08:39:10;;;;;;;;;;;19.00;68.50;;;;;;5066517;28;19920;-75
2021/01/18 08:42:23;;;;;;;;;;;20.00;65.70;;;;;;5072067;28;19939;-76
2021/01/18 08:45:27;;;;;;;;;;;19.60;64.20;;;;;;5068473;28;19919;-75
2021/01/18 08:48:31;;;;;;;;;;;18.90;63.80;;;;;;5053889;28;19923;-76
2021/01/18 08:51:45;;;;;;;;;;;19.70;61.90;;;;;;5052179;28;20279;-76
2021/01/18 08:54:49;;;;;;;;;;;20.60;60.10;;;;;;5071266;28;19923;-75
2021/01/18 08:57:53;;;;;;;;;;;19.70;58.20;;;;;;5066934;28;19916;-75
2021/01/18 09:00:58;;;;;;;;;;;17.30;61.60;;;;;;5072802;28;20248;-76
2021/01/18 09:04:06;;;;;;;;;;;17.10;62.00;;;;;;5066575;28;20540;-75
2021/01/18 09:07:11;;;;;;;;;;;15.60;66.10;;;;;;5073052;28;19983;-76
2021/01/18 09:10:19;;;;;;;;;;;15.90;66.80;;;;;;5058464;28;19928;-76
2021/01/18 09:13:24;;;;;;;;;;;16.60;64.60;;;;;;5057425;28;19924;-75
2021/01/18 09:16:29;;;;;;;;;;;18.90;64.30;;;;;;5071040;28;19932;-75
2021/01/18 09:19:33;;;;;;;;;;;21.60;60.40;;;;;;5068483;28;20390;-76
2021/01/18 09:22:39;;;;;;;;;;;23.90;57.20;;;;;;5069777;28;19983;-76
2021/01/18 09:25:44;;;;;;;;;;;25.40;54.30;;;;;;5067631;28;19939;-76
2021/01/18 09:28:54;;;;;;;;;;;26.50;50.50;;;;;;5070224;28;19919;-76
2021/01/18 09:32:02;;;;;;;;;;;27.70;49.00;;;;;;5058637;28;19920;-75
2021/01/18 09:35:06;;;;;;;;;;;27.20;46.80;;;;;;5055306;28;19919;-76
2021/01/18 09:38:11;;;;;;;;;;;27.50;45.20;;;;;;5071933;28;19924;-76
2021/01/18 09:41:16;;;;;;;;;;;26.90;46.20;;;;;;5068082;28;19924;-76
2021/01/18 09:44:23;;;;;;;;;;;27.60;44.70;;;;;;5058247;28;19920;-76
2021/01/18 09:47:28;;;;;;;;;;;27.70;43.50;;;;;;5064710;28;19936;-76
2021/01/18 09:50:32;;;;;;;;;;;27.90;41.90;;;;;;5069473;28;19923;-76
2021/01/18 09:53:36;;;;;;;;;;;19.20;49.20;;;;;;5071252;28;20466;-76
2021/01/18 09:56:42;;;;;;;;;;;14.90;59.20;;;;;;5063424;28;19920;-76
2021/01/18 09:59:49;;;;;;;;;;;14.20;62.90;;;;;;5052033;28;19921;-76
2021/01/18 10:02:54;;;;;;;;;;;15.20;62.80;;;;;;5071331;28;19947;-76
2021/01/18 10:06:09;;;;;;;;;;;14.90;62.70;;;;;;5073141;28;19919;-76
2021/01/18 10:09:15;;;;;;;;;;;16.40;62.00;;;;;;5072753;28;19928;-75
2021/01/18 10:12:24;;;;;;;;;;;16.20;57.60;;;;;;5064490;28;20386;-76
2021/01/18 10:15:27;;;;;;;;;;;17.90;58.80;;;;;;5062940;28;19920;-76
2021/01/18 10:18:32;;;;;;;;;;;19.20;56.30;;;;;;5072943;28;19919;-76
2021/01/18 10:21:36;;;;;;;;;;;19.30;56.00;;;;;;5071666;28;19930;-76
2021/01/18 10:24:40;;;;;;;;;;;20.30;53.90;;;;;;5063902;28;20379;-76
2021/01/18 10:27:51;;;;;;;;;;;21.00;52.00;;;;;;5071485;28;19927;-76
2021/01/18 10:30:55;;;;;;;;;;;22.30;51.60;;;;;;5071665;28;19924;-76
2021/01/18 10:34:16;;;;;;;;;;;22.70;49.80;;;;;;5072365;28;19919;-75
2021/01/18 10:37:20;;;;;;;;;;;23.70;48.30;;;;;;5069183;28;19920;-76
2021/01/18 10:40:24;;;;;;;;;;;23.30;47.60;;;;;;5070719;28;19931;-75
2021/01/18 10:43:29;;;;;;;;;;;20.10;52.20;;;;;;5068895;28;19919;-75
2021/01/18 10:46:34;;;;;;;;;;;20.20;52.60;;;;;;5061277;28;19924;-75
2021/01/18 10:49:38;;;;;;;;;;;22.50;50.80;;;;;;5061858;28;19932;-76
2021/01/18 10:52:42;;;;;;;;;;;22.20;49.80;;;;;;5066079;28;19925;-76
2021/01/18 10:55:46;;;;;;;;;;;21.00;48.70;;;;;;5066561;28;20581;-76
2021/01/18 10:58:56;;;;;;;;;;;23.10;49.10;;;;;;5066192;28;19919;-75
2021/01/18 11:02:04;;;;;;;;;;;23.90;48.60;;;;;;5065873;28;19935;-75
2021/01/18 11:05:10;;;;;;;;;;;25.50;47.20;;;;;;5060904;28;19920;-75
2021/01/18 11:08:14;;;;;;;;;;;25.20;45.10;;;;;;5071081;28;19928;-75
2021/01/18 11:11:22;;;;;;;;;;;27.40;44.50;;;;;;5060358;28;20054;-75
2021/01/18 11:14:27;;;;;;;;;;;27.50;43.70;;;;;;5062389;28;19947;-75
2021/01/18 11:17:31;;;;;;;;;;;25.30;43.00;;;;;;5057808;28;20539;-76
2021/01/18 11:20:35;;;;;;;;;;;21.60;45.40;;;;;;5056002;28;20370;-75
2021/01/18 11:23:40;;;;;;;;;;;23.80;46.50;;;;;;5066786;28;19946;-76
2021/01/18 11:26:47;;;;;;;;;;;25.00;45.30;;;;;;5066878;28;19927;-75
2021/01/18 11:29:51;;;;;;;;;;;25.60;43.30;;;;;;5057459;28;19932;-75
2021/01/18 11:32:55;;;;;;;;;;;27.50;41.40;;;;;;5062356;28;19922;-76
2021/01/18 11:36:00;;;;;;;;;;;25.00;42.30;;;;;;5056475;28;19919;-76
2021/01/18 11:39:07;;;;;;;;;;;24.50;44.20;;;;;;5055884;28;19924;-76
2021/01/18 11:42:11;;;;;;;;;;;26.80;43.10;;;;;;5056140;28;20318;-76
2021/01/18 11:45:16;;;;;;;;;;;28.50;41.00;;;;;;5059213;28;19936;-76
2021/01/18 11:48:19;;;;;;;;;;;29.60;42.00;;;;;;5061153;28;19920;-76
2021/01/18 11:51:23;;;;;;;;;;;29.70;40.80;;;;;;5055119;28;19939;-76
2021/01/18 11:54:27;;;;;;;;;;;26.50;38.70;;;;;;5055406;28;19928;-76
2021/01/18 11:57:32;;;;;;;;;;;27.10;42.10;;;;;;5055180;28;19916;-76
2021/01/18 12:00:36;;;;;;;;;;;28.10;42.40;;;;;;5058892;28;19971;-76
2021/01/18 12:03:41;;;;;;;;;;;27.80;41.10;;;;;;5070327;28;19920;-76
2021/01/18 12:06:45;;;;;;;;;;;28.00;42.20;;;;;;5070679;28;19919;-76
2021/01/18 12:09:49;;;;;;;;;;;26.90;40.80;;;;;;5068726;28;19928;-76
2021/01/18 12:12:53;;;;;;;;;;;26.60;42.30;;;;;;5067202;28;20378;-76
2021/01/18 12:15:57;;;;;;;;;;;24.20;44.30;;;;;;5059705;28;19924;-75
2021/01/18 12:19:02;;;;;;;;;;;22.80;44.90;;;;;;5060902;28;19925;-75
2021/01/18 12:22:06;;;;;;;;;;;25.20;43.70;;;;;;5068244;28;19919;-76
2021/01/18 12:25:10;;;;;;;;;;;27.30;42.00;;;;;;5066155;28;20267;-76
2021/01/18 12:28:14;;;;;;;;;;;25.00;42.40;;;;;;5066508;28;19923;-76
2021/01/18 12:31:22;;;;;;;;;;;21.60;45.80;;;;;;5055326;28;19939;-75
2021/01/18 12:34:27;;;;;;;;;;;22.10;46.10;;;;;;5069118;28;19919;-75
2021/01/18 12:37:31;;;;;;;;;;;21.70;46.60;;;;;;5066482;28;19939;-75
2021/01/18 12:40:35;;;;;;;;;;;23.40;45.60;;;;;;5065634;28;20379;-75
2021/01/18 12:43:39;;;;;;;;;;;22.70;45.90;;;;;;5064029;28;19988;-75
2021/01/18 12:46:43;;;;;;;;;;;22.10;46.10;;;;;;5068456;28;19931;-75
2021/01/18 12:49:48;;;;;;;;;;;22.90;45.50;;;;;;5069155;28;19991;-75
2021/01/18 12:52:52;;;;;;;;;;;23.40;44.70;;;;;;5061294;28;19928;-75
2021/01/18 12:55:56;;;;;;;;;;;20.00;47.00;;;;;;5064067;28;19916;-76
2021/01/18 12:59:01;;;;;;;;;;;21.80;47.30;;;;;;5066125;28;19920;-76
2021/01/18 13:02:09;;;;;;;;;;;22.30;46.20;;;;;;5063518;28;20402;-75
2021/01/18 13:05:12;;;;;;;;;;;24.70;44.40;;;;;;5068753;28;19924;-75
2021/01/18 13:08:17;;;;;;;;;;;25.70;42.30;;;;;;5065127;28;19923;-75
2021/01/18 13:11:21;;;;;;;;;;;24.20;42.60;;;;;;5068994;28;19931;-75
2021/01/18 13:14:26;;;;;;;;;;;23.10;43.40;;;;;;5066744;28;19924;-76
2021/01/18 13:17:31;;;;;;;;;;;23.00;42.70;;;;;;5069387;28;20414;-76
2021/01/18 13:20:35;;;;;;;;;;;21.50;44.40;;;;;;5065220;28;19939;-76
2021/01/18 13:23:39;;;;;;;;;;;22.80;46.30;;;;;;5068012;28;19919;-76
2021/01/18 13:26:43;;;;;;;;;;;24.70;43.00;;;;;;5071815;28;19924;-76
2021/01/18 13:29:47;;;;;;;;;;;25.60;41.20;;;;;;5055505;28;19943;-76
2021/01/18 13:32:51;;;;;;;;;;;25.80;42.10;;;;;;5072764;28;19912;-76
2021/01/18 13:35:55;;;;;;;;;;;25.90;41.00;;;;;;5072017;28;19919;-76
2021/01/18 13:38:59;;;;;;;;;;;25.50;40.40;;;;;;5070684;28;20378;-76
2021/01/18 13:42:05;;;;;;;;;;;24.70;44.00;;;;;;5066880;28;20311;-76
2021/01/18 13:45:10;;;;;;;;;;;22.10;44.40;;;;;;5063744;28;19935;-75
2021/01/18 13:48:15;;;;;;;;;;;20.60;45.50;;;;;;5062580;28;20279;-75
2021/01/18 13:51:21;;;;;;;;;;;19.50;47.10;;;;;;5070874;28;19923;-75
2021/01/18 13:54:25;;;;;;;;;;;18.00;52.10;;;;;;5065508;28;19924;-75
2021/01/18 13:57:29;;;;;;;;;;;20.50;49.30;;;;;;5071523;28;20265;-75
2021/01/18 14:00:33;;;;;;;;;;;22.40;47.30;;;;;;5068659;28;19920;-76
2021/01/18 14:03:37;;;;;;;;;;;22.10;44.30;;;;;;5069161;28;19920;-75
2021/01/18 14:06:41;;;;;;;;;;;20.30;45.90;;;;;;5070395;28;19913;-75
2021/01/18 14:09:45;;;;;;;;;;;19.80;47.50;;;;;;5066296;28;19919;-76
2021/01/18 14:12:49;;;;;;;;;;;20.50;47.20;;;;;;5070649;28;19919;-76
2021/01/18 14:15:53;;;;;;;;;;;21.60;46.40;;;;;;5065150;28;19919;-76
2021/01/18 14:18:57;;;;;;;;;;;19.90;46.20;;;;;;5068916;28;19916;-75
2021/01/18 14:22:01;;;;;;;;;;;19.60;48.40;;;;;;5070329;28;19923;-75
2021/01/18 14:25:06;;;;;;;;;;;19.50;49.10;;;;;;5068890;28;19935;-75
2021/01/18 14:28:10;;;;;;;;;;;20.20;48.00;;;;;;5069349;28;19920;-75
2021/01/18 14:31:24;;;;;;;;;;;20.60;47.60;;;;;;5055234;28;19974;-75
2021/01/18 14:34:28;;;;;;;;;;;20.20;46.30;;;;;;5071503;28;19919;-75
2021/01/18 14:37:32;;;;;;;;;;;19.50;50.40;;;;;;5071654;28;19920;-76
2021/01/18 14:40:36;;;;;;;;;;;20.40;48.90;;;;;;5071695;28;20259;-76
2021/01/18 14:43:42;;;;;;;;;;;21.20;47.80;;;;;;5070694;28;19923;-76
2021/01/18 14:46:46;;;;;;;;;;;21.70;46.10;;;;;;5071776;28;20248;-75
2021/01/18 14:49:49;;;;;;;;;;;21.80;44.60;;;;;;5071196;28;19928;-76
2021/01/18 14:52:53;;;;;;;;;;;20.20;45.80;;;;;;5071124;28;19939;-76
2021/01/18 14:55:57;;;;;;;;;;;20.00;47.20;;;;;;5069234;28;19924;-76
2021/01/18 14:59:05;;;;;;;;;;;19.30;47.70;;;;;;5068778;28;19936;-75
2021/01/18 15:02:10;;;;;;;;;;;18.70;47.00;;;;;;5066682;28;19927;-76
2021/01/18 15:05:14;;;;;;;;;;;18.70;48.00;;;;;;5070501;28;19998;-75
2021/01/18 15:08:18;;;;;;;;;;;19.20;47.20;;;;;;5068270;28;19919;-75
2021/01/18 15:11:22;;;;;;;;;;;19.40;47.00;;;;;;5069918;28;19938;-75
2021/01/18 15:14:26;;;;;;;;;;;19.40;47.40;;;;;;5069978;28;19938;-76
2021/01/18 15:17:31;;;;;;;;;;;19.30;48.80;;;;;;5071281;28;19924;-75
2021/01/18 15:20:35;;;;;;;;;;;19.00;48.50;;;;;;5069070;28;19923;-76
2021/01/18 15:23:39;;;;;;;;;;;18.60;49.20;;;;;;5070807;28;19923;-76
2021/01/18 15:26:43;;;;;;;;;;;18.20;51.60;;;;;;5060848;28;19920;-75
2021/01/18 15:29:47;;;;;;;;;;;18.00;51.30;;;;;;5069835;28;19916;-75
2021/01/18 15:32:51;;;;;;;;;;;17.40;52.90;;;;;;5063322;28;19919;-75
2021/01/18 15:36:08;;;;;;;;;;;16.90;53.40;;;;;;5057713;28;19920;-75
2021/01/18 15:39:13;;;;;;;;;;;16.40;54.70;;;;;;5071287;28;19913;-75
2021/01/18 15:42:17;;;;;;;;;;;16.10;56.20;;;;;;5069054;28;19920;-75
2021/01/18 15:45:23;;;;;;;;;;;15.60;55.50;;;;;;5071361;28;19924;-75
2021/01/18 15:48:28;;;;;;;;;;;15.30;56.30;;;;;;5067968;28;19923;-75
2021/01/18 15:51:32;;;;;;;;;;;14.80;57.30;;;;;;5063675;28;19939;-75
2021/01/18 15:54:36;;;;;;;;;;;14.30;58.30;;;;;;5070415;28;19924;-75
2021/01/18 15:57:41;;;;;;;;;;;13.80;59.60;;;;;;5069928;28;20397;-76
2021/01/18 16:00:45;;;;;;;;;;;12.90;62.10;;;;;;5067150;28;19931;-76
2021/01/18 16:03:49;;;;;;;;;;;11.90;64.50;;;;;;5055670;28;19920;-76
2021/01/18 16:06:53;;;;;;;;;;;11.10;66.40;;;;;;5069823;28;19935;-76
2021/01/18 16:09:57;;;;;;;;;;;10.40;69.90;;;;;;5067664;28;19924;-76
2021/01/18 16:13:01;;;;;;;;;;;9.80;71.70;;;;;;5069921;28;20329;-76
2021/01/18 16:16:05;;;;;;;;;;;9.30;74.40;;;;;;5066086;28;19924;-76
2021/01/18 16:19:09;;;;;;;;;;;8.90;76.70;;;;;;5067068;28;19924;-76
2021/01/18 16:22:13;;;;;;;;;;;8.50;78.70;;;;;;5068968;28;19920;-75
2021/01/18 16:25:17;;;;;;;;;;;8.10;81.70;;;;;;5068302;28;19920;-76
2021/01/18 16:28:21;;;;;;;;;;;7.80;84.90;;;;;;5057251;28;19920;-77
2021/01/18 16:31:26;;;;;;;;;;;7.50;89.70;;;;;;5066562;28;20283;-76
2021/01/18 16:34:31;;;;;;;;;;;7.30;92.10;;;;;;5065667;28;19920;-76
2021/01/18 16:37:35;;;;;;;;;;;7.10;94.20;;;;;;5072424;28;19931;-76
2021/01/18 16:40:40;;;;;;;;;;;6.90;96.60;;;;;;5073957;28;19919;-76
2021/01/18 16:43:44;;;;;;;;;;;6.80;98.30;;;;;;5073399;28;19920;-76
2021/01/18 16:46:48;;;;;;;;;;;6.70;99.80;;;;;;5074639;28;19919;-76
2021/01/18 16:49:52;;;;;;;;;;;6.50;99.90;;;;;;5074010;28;19923;-76
2021/01/18 16:52:56;;;;;;;;;;;6.40;99.90;;;;;;5074128;28;19939;-76
2021/01/18 16:55:59;;;;;;;;;;;6.30;99.90;;;;;;5074876;28;19927;-75
2021/01/18 16:59:03;;;;;;;;;;;6.20;99.90;;;;;;5073562;28;19991;-76
2021/01/18 17:02:07;;;;;;;;;;;6.10;99.90;;;;;;5073120;28;19916;-75
2021/01/18 17:05:11;;;;;;;;;;;6.00;99.90;;;;;;5068012;28;19920;-76
2021/01/18 17:08:15;;;;;;;;;;;6.00;99.90;;;;;;5069185;28;19923;-76
2021/01/18 17:11:20;;;;;;;;;;;5.90;99.90;;;;;;5061232;28;19923;-76
2021/01/18 17:14:24;;;;;;;;;;;5.90;99.90;;;;;;5067821;28;19923;-76
2021/01/18 17:17:28;;;;;;;;;;;5.80;99.90;;;;;;5062995;28;20027;-76
2021/01/18 17:20:32;;;;;;;;;;;5.80;99.90;;;;;;5062151;28;20279;-76
2021/01/18 17:23:44;;;;;;;;;;;5.80;99.90;;;;;;5070280;28;19920;-76
2021/01/18 17:26:49;;;;;;;;;;;5.80;99.90;;;;;;5071825;28;19920;-76
2021/01/18 17:29:52;;;;;;;;;;;5.70;99.90;;;;;;5071901;28;20354;-76
2021/01/18 17:32:56;;;;;;;;;;;5.60;99.90;;;;;;5054367;28;19927;-76
2021/01/18 17:36:00;;;;;;;;;;;5.60;99.90;;;;;;5068288;28;19920;-75
2021/01/18 17:39:05;;;;;;;;;;;5.50;99.90;;;;;;5072136;28;19923;-76
2021/01/18 17:42:09;;;;;;;;;;;5.50;99.90;;;;;;5062331;28;19939;-75
2021/01/18 17:45:14;;;;;;;;;;;5.50;99.90;;;;;;5071292;28;19924;-76
2021/01/18 17:48:18;;;;;;;;;;;5.50;99.90;;;;;;5071784;28;19920;-77
2021/01/18 17:51:22;;;;;;;;;;;5.40;99.90;;;;;;5070995;28;20303;-76
2021/01/18 17:54:26;;;;;;;;;;;5.40;99.90;;;;;;5070987;28;19928;-76
2021/01/18 17:57:30;;;;;;;;;;;5.30;99.90;;;;;;5070891;28;19924;-76
2021/01/18 18:00:34;;;;;;;;;;;5.30;99.90;;;;;;5061142;28;20386;-76
2021/01/18 18:03:39;;;;;;;;;;;5.30;99.90;;;;;;5068651;28;19920;-76